sensor_id;sensor_type;location;lat;lon;timestamp;pressure;altitude;pressure_sealevel;temperature;humidity
51926;BME280;37952;51.938;15.480;2023-11-22T00:02:41;100482.95;;;1.14;79.25
51926;BME280;37952;51.938;15.480;2023-11-22T00:05:42;100492.16;;;1.12;79.19
51926;BME280;37952;51.938;15.480;2023-11-22T00:08:44;100499.98;;;1.11;79.12
51926;BME280;37952;51.938;15.480;2023-11-22T00:11:46;100503.84;;;1.06;79.06
51926;BME280;37952;51.938;15.480;2023-11-22T00:14:47;100505.08;;;1.03;79.00
51926;BME280;37952;51.938;15.480;2023-11-22T00:17:49;100498.33;;;1.02;79.02
51926;BME280;37952;51.938;15.480;2023-11-22T00:20:51;100494.70;;;1.01;79.07
51926;BME280;37952;51.938;15.480;2023-11-22T00:23:52;100492.96;;;1.00;78.93
51926;BME280;37952;51.938;15.480;2023-11-22T00:26:54;100493.18;;;0.96;78.86
51926;BME280;37952;51.938;15.480;2023-11-22T00:29:55;100497.71;;;0.92;78.82
51926;BME280;37952;51.938;15.480;2023-11-22T00:33:00;100496.05;;;0.86;78.74
51926;BME280;37952;51.938;15.480;2023-11-22T00:36:01;100497.69;;;0.78;78.75
51926;BME280;37952;51.938;15.480;2023-11-22T00:39:05;100500.70;;;0.69;78.61
51926;BME280;37952;51.938;15.480;2023-11-22T00:42:08;100511.29;;;0.67;78.70
51926;BME280;37952;51.938;15.480;2023-11-22T00:45:10;100520.52;;;0.62;78.72
51926;BME280;37952;51.938;15.480;2023-11-22T00:48:11;100530.27;;;0.57;78.65
51926;BME280;37952;51.938;15.480;2023-11-22T00:51:13;100537.05;;;0.54;78.73
51926;BME280;37952;51.938;15.480;2023-11-22T00:54:15;100539.84;;;0.52;78.75
51926;BME280;37952;51.938;15.480;2023-11-22T00:57:17;100545.06;;;0.51;78.76
51926;BME280;37952;51.938;15.480;2023-11-22T01:00:18;100547.13;;;0.53;78.77
51926;BME280;37952;51.938;15.480;2023-11-22T01:03:20;100547.83;;;0.50;78.70
51926;BME280;37952;51.938;15.480;2023-11-22T01:06:22;100551.31;;;0.50;78.77
51926;BME280;37952;51.938;15.480;2023-11-22T01:09:24;100549.77;;;0.45;78.74
51926;BME280;37952;51.938;15.480;2023-11-22T01:12:26;100550.00;;;0.37;78.63
51926;BME280;37952;51.938;15.480;2023-11-22T01:15:28;100551.93;;;0.32;78.56
51926;BME280;37952;51.938;15.480;2023-11-22T01:18:29;100549.70;;;0.26;78.57
51926;BME280;37952;51.938;15.480;2023-11-22T01:21:31;100555.45;;;0.23;78.63
51926;BME280;37952;51.938;15.480;2023-11-22T01:24:33;100568.30;;;0.20;78.59
51926;BME280;37952;51.938;15.480;2023-11-22T01:27:35;100574.73;;;0.15;78.61
51926;BME280;37952;51.938;15.480;2023-11-22T01:30:37;100575.25;;;0.14;78.70
51926;BME280;37952;51.938;15.480;2023-11-22T01:33:40;100568.68;;;0.11;78.60
51926;BME280;37952;51.938;15.480;2023-11-22T01:36:42;100572.33;;;0.07;78.67
51926;BME280;37952;51.938;15.480;2023-11-22T01:39:47;100579.64;;;0.03;78.63
51926;BME280;37952;51.938;15.480;2023-11-22T01:42:50;100577.91;;;0.00;78.67
51926;BME280;37952;51.938;15.480;2023-11-22T01:45:52;100582.95;;;0.01;78.72
51926;BME280;37952;51.938;15.480;2023-11-22T01:48:54;100590.73;;;0.01;78.66
51926;BME280;37952;51.938;15.480;2023-11-22T01:51:55;100588.14;;;-0.01;78.64
51926;BME280;37952;51.938;15.480;2023-11-22T01:54:57;100591.96;;;0.01;78.63
51926;BME280;37952;51.938;15.480;2023-11-22T01:57:59;100592.14;;;-0.01;78.58
51926;BME280;37952;51.938;15.480;2023-11-22T02:01:04;100594.89;;;-0.00;78.52
51926;BME280;37952;51.938;15.480;2023-11-22T02:04:06;100602.37;;;-0.03;78.51
51926;BME280;37952;51.938;15.480;2023-11-22T02:07:08;100606.17;;;-0.03;78.57
51926;BME280;37952;51.938;15.480;2023-11-22T02:10:10;100621.06;;;-0.04;78.48
51926;BME280;37952;51.938;15.480;2023-11-22T02:13:12;100624.71;;;-0.04;78.42
51926;BME280;37952;51.938;15.480;2023-11-22T02:16:13;100630.27;;;-0.07;78.40
51926;BME280;37952;51.938;15.480;2023-11-22T02:19:16;100633.92;;;-0.07;78.42
51926;BME280;37952;51.938;15.480;2023-11-22T02:22:18;100642.40;;;-0.05;78.43
51926;BME280;37952;51.938;15.480;2023-11-22T02:25:20;100641.19;;;-0.06;78.31
51926;BME280;37952;51.938;15.480;2023-11-22T02:28:22;100634.79;;;-0.13;78.19
51926;BME280;37952;51.938;15.480;2023-11-22T02:31:27;100630.13;;;-0.16;78.21
51926;BME280;37952;51.938;15.480;2023-11-22T02:34:29;100629.78;;;-0.17;78.26
51926;BME280;37952;51.938;15.480;2023-11-22T02:37:30;100639.67;;;-0.19;78.21
51926;BME280;37952;51.938;15.480;2023-11-22T02:40:32;100645.39;;;-0.24;78.19
51926;BME280;37952;51.938;15.480;2023-11-22T02:43:34;100647.48;;;-0.24;78.24
51926;BME280;37952;51.938;15.480;2023-11-22T02:46:36;100644.87;;;-0.23;78.30
51926;BME280;37952;51.938;15.480;2023-11-22T02:49:38;100649.38;;;-0.25;78.20
51926;BME280;37952;51.938;15.480;2023-11-22T02:52:40;100641.06;;;-0.29;78.15
51926;BME280;37952;51.938;15.480;2023-11-22T02:55:43;100630.34;;;-0.33;78.14
51926;BME280;37952;51.938;15.480;2023-11-22T02:58:44;100623.06;;;-0.40;78.09
51926;BME280;37952;51.938;15.480;2023-11-22T03:01:47;100629.30;;;-0.46;78.13
51926;BME280;37952;51.938;15.480;2023-11-22T03:04:48;100629.65;;;-0.49;78.13
51926;BME280;37952;51.938;15.480;2023-11-22T03:07:50;100630.18;;;-0.53;78.18
51926;BME280;37952;51.938;15.480;2023-11-22T03:10:53;100636.41;;;-0.56;78.21
51926;BME280;37952;51.938;15.480;2023-11-22T03:13:55;100648.36;;;-0.62;78.11
51926;BME280;37952;51.938;15.480;2023-11-22T03:16:56;100668.27;;;-0.63;78.25
51926;BME280;37952;51.938;15.480;2023-11-22T03:19:59;100680.56;;;-0.64;78.23
51926;BME280;37952;51.938;15.480;2023-11-22T03:23:01;100681.44;;;-0.66;78.22
51926;BME280;37952;51.938;15.480;2023-11-22T03:26:04;100681.26;;;-0.71;78.17
51926;BME280;37952;51.938;15.480;2023-11-22T03:29:06;100682.82;;;-0.77;78.14
51926;BME280;37952;51.938;15.480;2023-11-22T03:32:10;100676.58;;;-0.80;78.19
51926;BME280;37952;51.938;15.480;2023-11-22T03:35:13;100678.99;;;-0.82;78.25
51926;BME280;37952;51.938;15.480;2023-11-22T03:38:14;100685.05;;;-0.84;78.22
51926;BME280;37952;51.938;15.480;2023-11-22T03:41:16;100695.95;;;-0.87;78.15
51926;BME280;37952;51.938;15.480;2023-11-22T03:44:22;100701.48;;;-0.87;78.15
51926;BME280;37952;51.938;15.480;2023-11-22T03:47:23;100697.67;;;-0.91;78.10
51926;BME280;37952;51.938;15.480;2023-11-22T03:50:25;100709.61;;;-0.96;78.13
51926;BME280;37952;51.938;15.480;2023-11-22T03:53:27;100726.91;;;-0.99;78.22
51926;BME280;37952;51.938;15.480;2023-11-22T03:56:29;100737.29;;;-0.97;78.24
51926;BME280;37952;51.938;15.480;2023-11-22T03:59:30;100740.05;;;-1.01;78.13
51926;BME280;37952;51.938;15.480;2023-11-22T04:02:32;100743.84;;;-1.06;78.15
51926;BME280;37952;51.938;15.480;2023-11-22T04:05:34;100756.48;;;-1.07;78.15
51926;BME280;37952;51.938;15.480;2023-11-22T04:08:36;100765.80;;;-1.07;78.14
51926;BME280;37952;51.938;15.480;2023-11-22T04:11:39;100765.79;;;-1.13;78.03
51926;BME280;37952;51.938;15.480;2023-11-22T04:14:41;100766.78;;;-1.22;77.95
51926;BME280;37952;51.938;15.480;2023-11-22T04:17:43;100776.81;;;-1.24;78.09
51926;BME280;37952;51.938;15.480;2023-11-22T04:20:45;100781.30;;;-1.26;78.07
51926;BME280;37952;51.938;15.480;2023-11-22T04:23:48;100793.91;;;-1.29;78.09
51926;BME280;37952;51.938;15.480;2023-11-22T04:26:49;100806.38;;;-1.29;78.12
51926;BME280;37952;51.938;15.480;2023-11-22T04:29:50;100813.46;;;-1.31;78.09
51926;BME280;37952;51.938;15.480;2023-11-22T04:32:52;100814.14;;;-1.33;78.07
51926;BME280;37952;51.938;15.480;2023-11-22T04:35:55;100813.07;;;-1.37;77.96
51926;BME280;37952;51.938;15.480;2023-11-22T04:38:56;100819.10;;;-1.41;78.02
51926;BME280;37952;51.938;15.480;2023-11-22T04:41:58;100831.21;;;-1.40;78.08
51926;BME280;37952;51.938;15.480;2023-11-22T04:44:59;100833.29;;;-1.40;77.98
51926;BME280;37952;51.938;15.480;2023-11-22T04:48:01;100834.30;;;-1.44;78.04
51926;BME280;37952;51.938;15.480;2023-11-22T04:51:03;100838.45;;;-1.45;78.11
51926;BME280;37952;51.938;15.480;2023-11-22T04:54:04;100838.60;;;-1.48;78.10
51926;BME280;37952;51.938;15.480;2023-11-22T04:57:06;100842.06;;;-1.48;78.08
51926;BME280;37952;51.938;15.480;2023-11-22T05:00:08;100848.97;;;-1.50;78.04
51926;BME280;37952;51.938;15.480;2023-11-22T05:03:10;100842.89;;;-1.55;78.02
51926;BME280;37952;51.938;15.480;2023-11-22T05:06:13;100838.02;;;-1.56;78.04
51926;BME280;37952;51.938;15.480;2023-11-22T05:09:15;100835.95;;;-1.57;78.03
51926;BME280;37952;51.938;15.480;2023-11-22T05:12:19;100841.81;;;-1.59;78.06
51926;BME280;37952;51.938;15.480;2023-11-22T05:15:20;100844.90;;;-1.63;77.96
51926;BME280;37952;51.938;15.480;2023-11-22T05:18:22;100858.02;;;-1.65;78.03
51926;BME280;37952;51.938;15.480;2023-11-22T05:21:23;100866.99;;;-1.66;78.10
51926;BME280;37952;51.938;15.480;2023-11-22T05:24:25;100872.86;;;-1.68;78.01
51926;BME280;37952;51.938;15.480;2023-11-22T05:27:27;100871.45;;;-1.72;77.99
51926;BME280;37952;51.938;15.480;2023-11-22T05:30:30;100863.27;;;-1.78;78.01
51926;BME280;37952;51.938;15.480;2023-11-22T05:33:31;100871.75;;;-1.79;78.07
51926;BME280;37952;51.938;15.480;2023-11-22T05:36:34;100884.02;;;-1.78;78.10
51926;BME280;37952;51.938;15.480;2023-11-22T05:39:36;100890.42;;;-1.77;78.16
51926;BME280;37952;51.938;15.480;2023-11-22T05:42:38;100895.77;;;-1.77;78.03
51926;BME280;37952;51.938;15.480;2023-11-22T05:45:39;100882.61;;;-1.82;77.99
51926;BME280;37952;51.938;15.480;2023-11-22T05:48:41;100881.38;;;-1.85;78.00
51926;BME280;37952;51.938;15.480;2023-11-22T05:51:42;100882.41;;;-1.85;77.94
51926;BME280;37952;51.938;15.480;2023-11-22T05:54:44;100883.42;;;-1.87;78.05
51926;BME280;37952;51.938;15.480;2023-11-22T05:57:46;100879.93;;;-1.91;77.90
51926;BME280;37952;51.938;15.480;2023-11-22T06:00:47;100873.00;;;-1.94;78.00
51926;BME280;37952;51.938;15.480;2023-11-22T06:03:49;100865.02;;;-1.98;77.97
51926;BME280;37952;51.938;15.480;2023-11-22T06:06:51;100869.33;;;-1.99;77.98
51926;BME280;37952;51.938;15.480;2023-11-22T06:09:52;100870.81;;;-2.05;78.00
51926;BME280;37952;51.938;15.480;2023-11-22T06:12:54;100879.09;;;-2.07;77.98
51926;BME280;37952;51.938;15.480;2023-11-22T06:15:56;100891.17;;;-2.10;78.00
51926;BME280;37952;51.938;15.480;2023-11-22T06:18:58;100890.14;;;-2.07;78.04
51926;BME280;37952;51.938;15.480;2023-11-22T06:21:59;100895.55;;;-2.04;78.15
51926;BME280;37952;51.938;15.480;2023-11-22T06:25:03;100894.17;;;-2.02;78.07
51926;BME280;37952;51.938;15.480;2023-11-22T06:28:06;100899.73;;;-2.01;78.09
51926;BME280;37952;51.938;15.480;2023-11-22T06:31:07;100909.75;;;-1.99;78.05
51926;BME280;37952;51.938;15.480;2023-11-22T06:34:09;100927.02;;;-1.99;78.18
51926;BME280;37952;51.938;15.480;2023-11-22T06:37:11;100938.64;;;-1.96;78.25
51926;BME280;37952;51.938;15.480;2023-11-22T06:40:12;100939.52;;;-1.95;78.22
51926;BME280;37952;51.938;15.480;2023-11-22T06:43:14;100944.15;;;-1.97;78.11
51926;BME280;37952;51.938;15.480;2023-11-22T06:46:16;100954.52;;;-1.98;78.19
51926;BME280;37952;51.938;15.480;2023-11-22T06:49:17;100964.89;;;-1.97;78.16
51926;BME280;37952;51.938;15.480;2023-11-22T06:52:20;100982.34;;;-1.98;78.16
51926;BME280;37952;51.938;15.480;2023-11-22T06:55:21;100992.01;;;-1.97;78.05
51926;BME280;37952;51.938;15.480;2023-11-22T06:58:23;100996.48;;;-2.00;78.07
51926;BME280;37952;51.938;15.480;2023-11-22T07:01:25;101016.50;;;-2.01;78.01
51926;BME280;37952;51.938;15.480;2023-11-22T07:04:27;101024.98;;;-2.01;78.04
51926;BME280;37952;51.938;15.480;2023-11-22T07:07:30;101032.77;;;-1.98;78.10
51926;BME280;37952;51.938;15.480;2023-11-22T07:10:39;101021.75;;;-1.96;77.96
51926;BME280;37952;51.938;15.480;2023-11-22T07:13:41;101000.46;;;-2.00;77.83
51926;BME280;37952;51.938;15.480;2023-11-22T07:16:42;100979.30;;;-2.06;77.81
51926;BME280;37952;51.938;15.480;2023-11-22T07:19:44;100972.17;;;-2.09;77.74
51926;BME280;37952;51.938;15.480;2023-11-22T07:22:49;100978.66;;;-2.17;77.70
51926;BME280;37952;51.938;15.480;2023-11-22T07:25:56;100999.73;;;-2.18;77.77
51926;BME280;37952;51.938;15.480;2023-11-22T07:28:57;101008.23;;;-2.15;77.76
51926;BME280;37952;51.938;15.480;2023-11-22T07:31:59;101011.70;;;-2.13;77.72
51926;BME280;37952;51.938;15.480;2023-11-22T07:35:01;101011.20;;;-2.12;77.84
51926;BME280;37952;51.938;15.480;2023-11-22T07:38:04;101001.58;;;-2.08;77.82
51926;BME280;37952;51.938;15.480;2023-11-22T07:41:06;100995.54;;;-2.07;77.78
51926;BME280;37952;51.938;15.480;2023-11-22T07:44:08;100985.31;;;-2.10;77.75
51926;BME280;37952;51.938;15.480;2023-11-22T07:47:15;100975.95;;;-2.13;77.73
51926;BME280;37952;51.938;15.480;2023-11-22T07:50:17;100978.70;;;-2.13;77.70
51926;BME280;37952;51.938;15.480;2023-11-22T07:53:18;100984.28;;;-2.09;77.71
51926;BME280;37952;51.938;15.480;2023-11-22T07:56:20;100982.94;;;-2.05;77.75
51926;BME280;37952;51.938;15.480;2023-11-22T07:59:22;100991.62;;;-2.02;77.70
51926;BME280;37952;51.938;15.480;2023-11-22T08:02:23;100997.16;;;-1.99;77.73
51926;BME280;37952;51.938;15.480;2023-11-22T08:05:26;101004.27;;;-1.99;77.77
51926;BME280;37952;51.938;15.480;2023-11-22T08:08:29;101006.02;;;-1.95;77.74
51926;BME280;37952;51.938;15.480;2023-11-22T08:11:31;101013.81;;;-1.95;77.63
51926;BME280;37952;51.938;15.480;2023-11-22T08:14:37;101019.36;;;-1.94;77.53
51926;BME280;37952;51.938;15.480;2023-11-22T08:17:39;101014.56;;;-1.90;77.47
51926;BME280;37952;51.938;15.480;2023-11-22T08:20:42;101023.02;;;-1.91;77.40
51926;BME280;37952;51.938;15.480;2023-11-22T08:23:48;101023.34;;;-1.91;77.40
51926;BME280;37952;51.938;15.480;2023-11-22T08:26:50;101026.14;;;-1.91;77.42
51926;BME280;37952;51.938;15.480;2023-11-22T08:29:51;101029.25;;;-1.90;77.32
51926;BME280;37952;51.938;15.480;2023-11-22T08:32:54;101031.86;;;-1.88;77.34
51926;BME280;37952;51.938;15.480;2023-11-22T08:35:56;101026.00;;;-1.88;77.36
51926;BME280;37952;51.938;15.480;2023-11-22T08:39:02;101031.75;;;-1.83;77.36
51926;BME280;37952;51.938;15.480;2023-11-22T08:42:05;101038.68;;;-1.81;77.30
51926;BME280;37952;51.938;15.480;2023-11-22T08:45:10;101050.63;;;-1.80;77.25
51926;BME280;37952;51.938;15.480;2023-11-22T08:48:13;101052.02;;;-1.79;77.30
51926;BME280;37952;51.938;15.480;2023-11-22T08:51:17;101055.20;;;-1.73;77.36
51926;BME280;37952;51.938;15.480;2023-11-22T08:54:19;101061.44;;;-1.70;77.32
51926;BME280;37952;51.938;15.480;2023-11-22T08:57:20;101055.91;;;-1.69;77.30
51926;BME280;37952;51.938;15.480;2023-11-22T09:00:22;101061.30;;;-1.66;77.22
51926;BME280;37952;51.938;15.480;2023-11-22T09:03:24;101058.20;;;-1.67;77.14
51926;BME280;37952;51.938;15.480;2023-11-22T09:06:26;101054.91;;;-1.66;77.06
51926;BME280;37952;51.938;15.480;2023-11-22T09:09:27;101055.64;;;-1.63;77.19
51926;BME280;37952;51.938;15.480;2023-11-22T09:12:32;101064.84;;;-1.59;77.15
51926;BME280;37952;51.938;15.480;2023-11-22T09:15:33;101068.68;;;-1.56;77.00
51926;BME280;37952;51.938;15.480;2023-11-22T09:18:36;101078.06;;;-1.52;77.17
51926;BME280;37952;51.938;15.480;2023-11-22T09:21:39;101074.64;;;-1.47;77.21
51926;BME280;37952;51.938;15.480;2023-11-22T09:24:40;101074.23;;;-1.38;77.25
51926;BME280;37952;51.938;15.480;2023-11-22T09:27:43;101077.27;;;-1.29;77.22
51926;BME280;37952;51.938;15.480;2023-11-22T09:30:48;101071.89;;;-1.28;76.95
51926;BME280;37952;51.938;15.480;2023-11-22T09:33:50;101060.29;;;-1.30;76.92
51926;BME280;37952;51.938;15.480;2023-11-22T09:36:52;101070.34;;;-1.29;76.97
51926;BME280;37952;51.938;15.480;2023-11-22T09:39:56;101081.80;;;-1.23;76.96
51926;BME280;37952;51.938;15.480;2023-11-22T09:43:00;101079.25;;;-1.18;76.97
51926;BME280;37952;51.938;15.480;2023-11-22T09:46:03;101070.63;;;-1.15;76.95
51926;BME280;37952;51.938;15.480;2023-11-22T09:49:08;101059.06;;;-1.12;76.90
51926;BME280;37952;51.938;15.480;2023-11-22T09:52:16;101063.95;;;-1.07;76.92
51926;BME280;37952;51.938;15.480;2023-11-22T09:55:28;101062.95;;;-1.02;76.95
51926;BME280;37952;51.938;15.480;2023-11-22T09:58:30;101060.22;;;-0.98;76.81
51926;BME280;37952;51.938;15.480;2023-11-22T10:01:34;101062.14;;;-0.95;76.86
51926;BME280;37952;51.938;15.480;2023-11-22T10:04:38;101056.48;;;-0.91;76.77
51926;BME280;37952;51.938;15.480;2023-11-22T10:07:39;101044.90;;;-0.86;76.76
51926;BME280;37952;51.938;15.480;2023-11-22T10:10:41;101041.84;;;-0.80;76.72
51926;BME280;37952;51.938;15.480;2023-11-22T10:13:51;101040.14;;;-0.74;76.78
51926;BME280;37952;51.938;15.480;2023-11-22T10:17:02;101042.27;;;-0.68;76.59
51926;BME280;37952;51.938;15.480;2023-11-22T10:20:04;101038.15;;;-0.61;76.62
51926;BME280;37952;51.938;15.480;2023-11-22T10:23:14;101040.45;;;-0.53;76.52
51926;BME280;37952;51.938;15.480;2023-11-22T10:26:16;101053.47;;;-0.46;76.60
51926;BME280;37952;51.938;15.480;2023-11-22T10:29:19;101064.95;;;-0.37;76.46
51926;BME280;37952;51.938;15.480;2023-11-22T10:32:21;101058.77;;;-0.31;76.34
51926;BME280;37952;51.938;15.480;2023-11-22T10:35:22;101045.27;;;-0.24;76.24
51926;BME280;37952;51.938;15.480;2023-11-22T10:38:24;101051.04;;;-0.16;76.33
51926;BME280;37952;51.938;15.480;2023-11-22T10:41:27;101043.96;;;-0.07;76.18
51926;BME280;37952;51.938;15.480;2023-11-22T10:44:29;101046.06;;;-0.01;76.03
51926;BME280;37952;51.938;15.480;2023-11-22T10:47:32;101044.54;;;0.06;75.88
51926;BME280;37952;51.938;15.480;2023-11-22T10:50:35;101041.26;;;0.11;75.82
51926;BME280;37952;51.938;15.480;2023-11-22T10:53:44;101036.08;;;0.19;75.60
51926;BME280;37952;51.938;15.480;2023-11-22T10:56:52;101029.34;;;0.26;75.64
51926;BME280;37952;51.938;15.480;2023-11-22T10:59:56;101038.38;;;0.34;75.48
51926;BME280;37952;51.938;15.480;2023-11-22T11:03:13;101039.96;;;0.44;75.37
51926;BME280;37952;51.938;15.480;2023-11-22T11:06:19;101031.30;;;0.49;75.09
51926;BME280;37952;51.938;15.480;2023-11-22T11:09:22;101031.65;;;0.56;75.13
51926;BME280;37952;51.938;15.480;2023-11-22T11:12:28;101030.11;;;0.62;75.14
51926;BME280;37952;51.938;15.480;2023-11-22T11:15:30;101036.19;;;0.73;74.95
51926;BME280;37952;51.938;15.480;2023-11-22T11:18:32;101046.08;;;0.84;74.85
51926;BME280;37952;51.938;15.480;2023-11-22T11:21:34;101052.33;;;0.95;74.63
51926;BME280;37952;51.938;15.480;2023-11-22T11:24:40;101052.15;;;1.05;74.60
51926;BME280;37952;51.938;15.480;2023-11-22T11:27:41;101045.73;;;1.15;74.56
51926;BME280;37952;51.938;15.480;2023-11-22T11:30:45;101041.03;;;1.22;74.22
51926;BME280;37952;51.938;15.480;2023-11-22T11:36:53;101033.88;;;1.34;73.86
51926;BME280;37952;51.938;15.480;2023-11-22T11:39:58;101038.40;;;1.40;73.34
51926;BME280;37952;51.938;15.480;2023-11-22T11:43:00;101050.02;;;1.47;73.33
51926;BME280;37952;51.938;15.480;2023-11-22T11:46:01;101054.87;;;1.55;73.29
51926;BME280;37952;51.938;15.480;2023-11-22T11:49:07;101059.72;;;1.60;72.99
51926;BME280;37952;51.938;15.480;2023-11-22T11:52:11;101063.52;;;1.69;72.98
51926;BME280;37952;51.938;15.480;2023-11-22T11:55:14;101066.47;;;1.74;72.72
51926;BME280;37952;51.938;15.480;2023-11-22T11:58:16;101058.30;;;1.77;72.32
51926;BME280;37952;51.938;15.480;2023-11-22T12:01:19;101050.65;;;1.73;72.06
51926;BME280;37952;51.938;15.480;2023-11-22T12:04:24;101044.55;;;1.81;72.59
51926;BME280;37952;51.938;15.480;2023-11-22T12:07:25;101032.66;;;1.97;72.44
51926;BME280;37952;51.938;15.480;2023-11-22T12:10:27;101018.14;;;2.13;72.29
51926;BME280;37952;51.938;15.480;2023-11-22T12:13:29;101001.70;;;2.30;72.02
51926;BME280;37952;51.938;15.480;2023-11-22T12:16:30;100996.07;;;2.40;71.80
51926;BME280;37952;51.938;15.480;2023-11-22T12:19:32;100996.88;;;2.48;71.82
51926;BME280;37952;51.938;15.480;2023-11-22T12:22:35;100991.36;;;2.42;71.67
51926;BME280;37952;51.938;15.480;2023-11-22T12:25:37;100982.33;;;2.38;71.74
51926;BME280;37952;51.938;15.480;2023-11-22T12:28:40;100979.18;;;2.40;71.80
51926;BME280;37952;51.938;15.480;2023-11-22T12:31:50;100974.25;;;2.48;71.60
51926;BME280;37952;51.938;15.480;2023-11-22T12:34:56;100972.09;;;2.57;71.38
51926;BME280;37952;51.938;15.480;2023-11-22T12:37:59;100966.17;;;2.58;71.02
51926;BME280;37952;51.938;15.480;2023-11-22T12:41:01;100970.64;;;2.66;71.14
51926;BME280;37952;51.938;15.480;2023-11-22T12:44:08;100963.39;;;2.79;71.38
51926;BME280;37952;51.938;15.480;2023-11-22T12:47:10;100977.19;;;2.94;71.38
51926;BME280;37952;51.938;15.480;2023-11-22T12:50:32;100979.69;;;3.05;71.24
51926;BME280;37952;51.938;15.480;2023-11-22T12:53:37;100985.07;;;3.07;70.80
51926;BME280;37952;51.938;15.480;2023-11-22T12:56:38;100989.64;;;3.02;70.33
51926;BME280;37952;51.938;15.480;2023-11-22T12:59:41;100993.94;;;2.90;69.86
51926;BME280;37952;51.938;15.480;2023-11-22T13:02:43;100991.54;;;2.64;69.46
51926;BME280;37952;51.938;15.480;2023-11-22T13:06:01;100983.48;;;2.47;70.30
51926;BME280;37952;51.938;15.480;2023-11-22T13:09:03;100977.44;;;2.41;70.16
51926;BME280;37952;51.938;15.480;2023-11-22T13:12:05;100962.00;;;2.34;70.28
51926;BME280;37952;51.938;15.480;2023-11-22T13:15:08;100944.14;;;2.25;70.07
51926;BME280;37952;51.938;15.480;2023-11-22T13:18:13;100942.30;;;2.14;70.15
51926;BME280;37952;51.938;15.480;2023-11-22T13:21:15;100955.06;;;2.02;70.06
51926;BME280;37952;51.938;15.480;2023-11-22T13:24:16;100974.74;;;1.97;70.55
51926;BME280;37952;51.938;15.480;2023-11-22T13:27:23;100975.98;;;1.92;70.64
51926;BME280;37952;51.938;15.480;2023-11-22T13:30:27;100977.77;;;1.85;70.55
51926;BME280;37952;51.938;15.480;2023-11-22T13:33:28;100979.00;;;1.78;70.58
51926;BME280;37952;51.938;15.480;2023-11-22T13:36:30;100972.29;;;1.69;70.01
51926;BME280;37952;51.938;15.480;2023-11-22T13:39:33;100982.73;;;1.60;69.90
51926;BME280;37952;51.938;15.480;2023-11-22T13:42:35;100990.42;;;1.48;69.61
51926;BME280;37952;51.938;15.480;2023-11-22T13:45:36;100992.19;;;1.41;70.04
51926;BME280;37952;51.938;15.480;2023-11-22T13:48:41;100986.10;;;1.39;70.32
51926;BME280;37952;51.938;15.480;2023-11-22T13:51:43;100980.91;;;1.36;70.07
51926;BME280;37952;51.938;15.480;2023-11-22T13:54:44;100966.85;;;1.28;70.01
51926;BME280;37952;51.938;15.480;2023-11-22T13:57:46;100966.69;;;1.24;70.05
51926;BME280;37952;51.938;15.480;2023-11-22T14:00:47;100966.87;;;1.21;70.09
51926;BME280;37952;51.938;15.480;2023-11-22T14:03:50;100971.74;;;1.15;69.99
51926;BME280;37952;51.938;15.480;2023-11-22T14:06:53;100987.04;;;1.10;69.68
51926;BME280;37952;51.938;15.480;2023-11-22T14:09:55;100986.70;;;1.04;69.98
51926;BME280;37952;51.938;15.480;2023-11-22T14:12:56;100997.98;;;1.04;70.23
51926;BME280;37952;51.938;15.480;2023-11-22T14:16:01;100991.04;;;1.03;70.33
51926;BME280;37952;51.938;15.480;2023-11-22T14:19:04;100976.45;;;1.03;70.57
51926;BME280;37952;51.938;15.480;2023-11-22T14:22:07;100969.68;;;1.03;70.68
51926;BME280;37952;51.938;15.480;2023-11-22T14:25:10;100977.33;;;1.00;70.73
51926;BME280;37952;51.938;15.480;2023-11-22T14:28:15;100976.46;;;0.98;71.01
51926;BME280;37952;51.938;15.480;2023-11-22T14:31:16;100961.54;;;0.97;70.99
51926;BME280;37952;51.938;15.480;2023-11-22T14:34:20;100960.50;;;0.95;70.96
51926;BME280;37952;51.938;15.480;2023-11-22T14:37:22;100968.66;;;0.90;70.96
51926;BME280;37952;51.938;15.480;2023-11-22T14:40:23;100967.27;;;0.85;70.99
51926;BME280;37952;51.938;15.480;2023-11-22T14:43:25;100960.34;;;0.80;71.02
51926;BME280;37952;51.938;15.480;2023-11-22T14:46:27;100948.02;;;0.74;71.04
51926;BME280;37952;51.938;15.480;2023-11-22T14:49:28;100946.81;;;0.71;71.32
51926;BME280;37952;51.938;15.480;2023-11-22T14:52:36;100934.15;;;0.67;71.24
51926;BME280;37952;51.938;15.480;2023-11-22T14:55:37;100933.10;;;0.62;71.26
51926;BME280;37952;51.938;15.480;2023-11-22T14:58:42;100936.40;;;0.54;71.05
51926;BME280;37952;51.938;15.480;2023-11-22T15:01:44;100943.86;;;0.47;71.21
51926;BME280;37952;51.938;15.480;2023-11-22T15:04:47;100945.94;;;0.42;71.27
51926;BME280;37952;51.938;15.480;2023-11-22T15:07:50;100940.22;;;0.36;71.29
51926;BME280;37952;51.938;15.480;2023-11-22T15:10:55;100949.05;;;0.33;71.46
51926;BME280;37952;51.938;15.480;2023-11-22T15:13:58;100949.74;;;0.30;71.60
51926;BME280;37952;51.938;15.480;2023-11-22T15:17:00;100944.54;;;0.25;71.64
51926;BME280;37952;51.938;15.480;2023-11-22T15:20:05;100957.04;;;0.25;71.72
51926;BME280;37952;51.938;15.480;2023-11-22T15:23:17;100975.57;;;0.22;71.85
51926;BME280;37952;51.938;15.480;2023-11-22T15:26:24;100979.90;;;0.21;71.92
51926;BME280;37952;51.938;15.480;2023-11-22T15:29:25;100989.96;;;0.21;72.09
51926;BME280;37952;51.938;15.480;2023-11-22T15:32:27;101003.31;;;0.20;72.16
51926;BME280;37952;51.938;15.480;2023-11-22T15:35:29;101011.29;;;0.20;72.11
51926;BME280;37952;51.938;15.480;2023-11-22T15:38:30;101007.81;;;0.20;72.10
51926;BME280;37952;51.938;15.480;2023-11-22T15:41:32;101010.76;;;0.18;72.14
51926;BME280;37952;51.938;15.480;2023-11-22T15:44:34;101011.98;;;0.16;72.05
51926;BME280;37952;51.938;15.480;2023-11-22T15:47:38;101016.99;;;0.15;72.02
51926;BME280;37952;51.938;15.480;2023-11-22T15:50:44;101010.58;;;0.10;72.02
51926;BME280;37952;51.938;15.480;2023-11-22T15:53:49;101001.72;;;0.07;71.96